createdAt,value
2023-04-25T00:01:39.259Z,99399.66
2023-04-25T00:04:07.881Z,99388.47
2023-04-25T00:06:37.465Z,99390.13
2023-04-25T00:09:08.365Z,99391.38
2023-04-25T00:11:36.138Z,99390.34
2023-04-25T00:14:04.283Z,99399.66
2023-04-25T00:16:35.998Z,99399.16
2023-04-25T00:19:04.017Z,99396.16
2023-04-25T00:21:32.941Z,99399.72
2023-04-25T00:24:01.115Z,99400.09
2023-04-25T00:26:29.731Z,99400.97
2023-04-25T00:28:58.648Z,99405.66
2023-04-25T00:31:26.689Z,99402.25
2023-04-25T00:33:55.905Z,99401.19
2023-04-25T00:36:23.904Z,99403.34
2023-04-25T00:38:51.877Z,99402.72
2023-04-25T00:41:20.882Z,99404.00
2023-04-25T00:43:49.973Z,99400.06
2023-04-25T00:46:19.055Z,99400.78
2023-04-25T00:48:47.041Z,99394.31
2023-04-25T00:51:19.152Z,99398.56
2023-04-25T00:53:47.696Z,99394.91
2023-04-25T00:56:16.502Z,99393.19
2023-04-25T00:58:44.703Z,99383.34
2023-04-25T01:01:13.807Z,99390.28
2023-04-25T01:03:44.083Z,99392.28
2023-04-25T01:06:12.951Z,99393.38
2023-04-25T01:08:45.753Z,99387.00
2023-04-25T01:11:13.959Z,99391.78
2023-04-25T01:13:41.969Z,99385.59
2023-04-25T01:16:10.419Z,99385.28
2023-04-25T01:18:41.003Z,99382.47
2023-04-25T01:21:11.051Z,99382.84
2023-04-25T01:23:39.575Z,99384.31
2023-04-25T01:26:08.361Z,99389.97
2023-04-25T01:28:36.867Z,99398.03
2023-04-25T01:31:05.394Z,99396.13
2023-04-25T01:33:33.515Z,99393.09
2023-04-25T01:36:02.272Z,99394.34
2023-04-25T01:38:32.050Z,99393.47
2023-04-25T01:41:01.941Z,99393.47
2023-04-25T01:43:29.816Z,99391.72
2023-04-25T01:45:58.755Z,99387.91
2023-04-25T01:48:26.908Z,99388.34
2023-04-25T01:50:57.435Z,99390.22
2023-04-25T01:53:25.890Z,99392.22
2023-04-25T01:55:56.432Z,99390.59
2023-04-25T01:58:26.842Z,99391.19
2023-04-25T02:01:13.604Z,99398.25
2023-04-25T02:03:47.643Z,99395.41
2023-04-25T02:06:27.913Z,99394.25
2023-04-25T02:08:58.543Z,99390.84
2023-04-25T02:11:28.126Z,99393.53
2023-04-25T02:14:14.596Z,99394.31
2023-04-25T02:16:52.521Z,99399.50
2023-04-25T02:19:20.537Z,99382.66
2023-04-25T02:21:48.556Z,99389.06
2023-04-25T02:24:17.191Z,99384.72
2023-04-25T02:26:47.757Z,99384.94
2023-04-25T02:29:16.419Z,99387.84
2023-04-25T02:31:44.317Z,99385.38
2023-04-25T02:34:12.277Z,99385.88
2023-04-25T02:36:40.703Z,99384.94
2023-04-25T02:39:08.510Z,99382.00
2023-04-25T02:41:36.295Z,99387.53
2023-04-25T02:44:05.394Z,99386.50
2023-04-25T02:49:06.245Z,99372.09
2023-04-25T02:51:34.141Z,99375.81
2023-04-25T02:54:02.126Z,99379.69
2023-04-25T02:56:30.832Z,99374.72
2023-04-25T02:58:59.177Z,99376.63
2023-04-25T03:01:28.897Z,99379.94
2023-04-25T03:03:57.093Z,99381.63
2023-04-25T03:06:25.643Z,99378.72
2023-04-25T03:08:54.241Z,99375.25
2023-04-25T03:11:22.332Z,99381.28
2023-04-25T03:13:50.320Z,99376.16
2023-04-25T03:16:18.476Z,99381.44
2023-04-25T03:18:47.749Z,99375.91
2023-04-25T03:21:15.813Z,99384.94
2023-04-25T03:23:43.584Z,99375.06
2023-04-25T03:26:11.530Z,99381.25
2023-04-25T03:28:40.715Z,99376.59
2023-04-25T03:31:08.798Z,99377.75
2023-04-25T03:33:36.534Z,99376.22
2023-04-25T03:36:06.272Z,99366.13
2023-04-25T03:38:34.054Z,99355.38
2023-04-25T03:41:02.970Z,99360.13
2023-04-25T03:43:40.727Z,99350.44
2023-04-25T03:46:12.538Z,99354.38
2023-04-25T03:48:41.845Z,99359.66
2023-04-25T03:51:13.384Z,99371.53
2023-04-25T03:53:44.825Z,99371.59
2023-04-25T03:56:21.815Z,99364.28
2023-04-25T03:58:56.120Z,99363.88
2023-04-25T04:01:27.792Z,99357.22
2023-04-25T04:03:56.025Z,99357.69
2023-04-25T04:06:26.953Z,99365.44
2023-04-25T04:09:03.632Z,99359.09
2023-04-25T04:11:34.465Z,99368.78
2023-04-25T04:14:02.395Z,99366.13
2023-04-25T04:16:33.229Z,99372.28
2023-04-25T04:19:02.557Z,99381.16
2023-04-25T04:21:33.027Z,99377.81
2023-04-25T04:24:01.776Z,99389.78
2023-04-25T04:26:35.459Z,99393.00
2023-04-25T04:29:13.868Z,99391.25
2023-04-25T04:31:47.820Z,99396.09
2023-04-25T04:34:17.741Z,99400.69
2023-04-25T04:36:48.202Z,99409.81
2023-04-25T04:39:16.556Z,99410.75
2023-04-25T04:42:02.827Z,99420.91
2023-04-25T04:44:50.055Z,99422.66
2023-04-25T04:47:46.912Z,99437.03
2023-04-25T04:50:34.450Z,99451.84
2023-04-25T04:53:14.029Z,99458.03
2023-04-25T04:56:01.322Z,99459.84
2023-04-25T04:58:51.478Z,99470.91
2023-04-25T05:01:37.002Z,99469.97
2023-04-25T05:04:25.802Z,99471.09
2023-04-25T05:07:29.042Z,99470.84
2023-04-25T05:10:12.786Z,99471.22
2023-04-25T05:13:04.653Z,99479.84
2023-04-25T05:15:59.401Z,99484.38
2023-04-25T05:18:48.577Z,99497.50
2023-04-25T05:21:29.698Z,99492.75
2023-04-25T05:24:11.380Z,99498.97
2023-04-25T05:27:10.358Z,99500.72
2023-04-25T05:29:46.696Z,99501.91
2023-04-25T05:35:43.876Z,99505.97
2023-04-25T05:38:20.565Z,99509.28
2023-04-25T05:41:07.687Z,99510.22
2023-04-25T05:46:54.657Z,99519.31
2023-04-25T05:49:57.606Z,99526.81
2023-04-25T05:56:00.725Z,99537.34
2023-04-25T06:04:30.993Z,99538.88
2023-04-25T06:09:43.461Z,99547.72
2023-04-25T06:12:33.477Z,99550.84
2023-04-25T06:15:20.191Z,99549.53
2023-04-25T06:21:25.857Z,99550.09
2023-04-25T06:23:57.482Z,99550.84
2023-04-25T06:26:40.310Z,99553.09
2023-04-25T06:29:13.463Z,99555.31
2023-04-25T06:31:47.065Z,99548.19
2023-04-25T06:34:18.885Z,99552.66
2023-04-25T06:36:53.944Z,99552.53
2023-04-25T06:39:29.831Z,99550.31
2023-04-25T06:42:10.536Z,99545.06
2023-04-25T06:45:05.740Z,99545.66
2023-04-25T06:50:59.288Z,99560.41
2023-04-25T06:54:20.161Z,99567.13
2023-04-25T06:57:04.727Z,99569.63
2023-04-25T06:59:35.519Z,99563.16
2023-04-25T07:02:05.805Z,99573.66
2023-04-25T07:04:48.799Z,99563.00
2023-04-25T07:07:19.095Z,99569.47
2023-04-25T07:13:05.756Z,99566.00
2023-04-25T07:15:35.754Z,99567.75
2023-04-25T07:20:49.927Z,99569.56
2023-04-25T07:23:24.435Z,99574.50
2023-04-25T07:25:57.178Z,99578.91
2023-04-25T07:28:28.157Z,99579.75
2023-04-25T07:30:56.695Z,99584.00
2023-04-25T07:33:27.532Z,99582.84
2023-04-25T07:38:40.648Z,99580.63
2023-04-25T07:44:05.251Z,99596.25
2023-04-25T07:46:37.575Z,99589.72
2023-04-25T07:49:13.328Z,99602.56
2023-04-25T07:51:46.646Z,99598.78
2023-04-25T07:54:29.866Z,99603.28
2023-04-25T07:57:08.672Z,99611.78
2023-04-25T08:03:00.689Z,99622.16
2023-04-25T08:05:34.928Z,99623.19
2023-04-25T08:08:09.371Z,99627.25
2023-04-25T08:10:43.412Z,99626.91
2023-04-25T08:13:31.602Z,99630.09
2023-04-25T08:18:51.208Z,99630.63
2023-04-25T08:24:10.770Z,99640.69
2023-04-25T08:26:42.960Z,99644.97
2023-04-25T08:29:17.141Z,99641.31
2023-04-25T08:32:04.205Z,99650.09
2023-04-25T08:34:38.173Z,99655.53
2023-04-25T08:37:11.813Z,99659.31
2023-04-25T08:39:47.989Z,99657.03
2023-04-25T08:42:37.127Z,99654.88
2023-04-25T08:45:10.922Z,99656.53
2023-04-25T08:48:09.889Z,99662.19
2023-04-25T08:50:46.364Z,99665.72
2023-04-25T08:53:20.367Z,99664.22
2023-04-25T08:56:19.090Z,99678.56
2023-04-25T08:58:58.173Z,99680.91
2023-04-25T09:01:51.330Z,99683.72
2023-04-25T09:04:26.679Z,99683.44
2023-04-25T09:06:58.312Z,99685.66
2023-04-25T09:09:31.751Z,99699.31
2023-04-25T09:18:05.223Z,99694.06
2023-04-25T09:24:02.336Z,99695.97
2023-04-25T09:26:30.802Z,99698.59
2023-04-25T09:29:08.424Z,99706.84
2023-04-25T09:31:44.417Z,99706.06
2023-04-25T09:34:17.500Z,99709.75
2023-04-25T09:37:06.752Z,99719.50
2023-04-25T09:39:57.299Z,99714.06
2023-04-25T09:42:26.610Z,99717.41
2023-04-25T09:45:01.637Z,99735.25
2023-04-25T09:47:31.131Z,99737.16
2023-04-25T09:50:02.125Z,99734.84
2023-04-25T09:52:40.191Z,99734.28
2023-04-25T09:55:21.500Z,99732.06
2023-04-25T09:57:54.181Z,99736.19
2023-04-25T10:00:23.695Z,99749.19
2023-04-25T10:02:52.912Z,99744.34
2023-04-25T10:05:51.840Z,99744.00
2023-04-25T10:11:15.664Z,99759.16
2023-04-25T10:13:45.738Z,99748.44
2023-04-25T10:16:14.650Z,99762.47
2023-04-25T10:18:59.217Z,99751.31
2023-04-25T10:21:42.445Z,99758.25
2023-04-25T10:24:22.812Z,99757.41
2023-04-25T10:26:52.450Z,99764.44
2023-04-25T10:29:26.436Z,99768.41
2023-04-25T10:32:06.402Z,99756.25
2023-04-25T10:34:44.225Z,99757.50
2023-04-25T10:37:13.646Z,99768.41
2023-04-25T10:46:07.339Z,99765.16
2023-04-25T10:48:39.491Z,99762.66
2023-04-25T10:51:14.382Z,99763.13
2023-04-25T10:53:46.747Z,99775.47
2023-04-25T10:56:24.775Z,99778.59
2023-04-25T10:58:54.091Z,99778.72
2023-04-25T11:01:27.812Z,99773.16
2023-04-25T11:04:02.453Z,99786.41
2023-04-25T11:06:42.078Z,99778.88
2023-04-25T11:09:15.556Z,99781.34
2023-04-25T11:11:56.550Z,99777.06
2023-04-25T11:14:29.228Z,99774.25
2023-04-25T11:17:01.305Z,99766.38
2023-04-25T11:19:30.773Z,99779.53
2023-04-25T11:22:04.628Z,99780.59
2023-04-25T11:27:17.635Z,99779.75
2023-04-25T11:29:45.732Z,99783.38
2023-04-25T11:32:14.578Z,99780.34
2023-04-25T11:34:48.222Z,99791.16
2023-04-25T11:37:19.083Z,99792.63
2023-04-25T11:39:50.869Z,99786.63
2023-04-25T11:42:35.352Z,99791.03
2023-04-25T11:45:06.186Z,99795.41
2023-04-25T11:47:48.824Z,99802.16
2023-04-25T11:50:19.367Z,99797.31
2023-04-25T11:52:52.762Z,99792.47
2023-04-25T11:55:23.172Z,99793.28
2023-04-25T11:57:57.799Z,99804.47
2023-04-25T12:00:26.918Z,99813.72
2023-04-25T12:02:57.629Z,99815.94
2023-04-25T12:05:32.747Z,99810.22
2023-04-25T12:08:14.725Z,99821.63
2023-04-25T12:10:48.232Z,99827.72
2023-04-25T12:13:26.251Z,99818.03
2023-04-25T12:19:00.618Z,99823.94
2023-04-25T12:21:57.349Z,99828.78
2023-04-25T12:24:29.280Z,99829.44
2023-04-25T12:27:02.027Z,99826.44
2023-04-25T12:29:49.797Z,99827.69
2023-04-25T12:32:25.091Z,99828.19
2023-04-25T12:35:00.267Z,99825.47
2023-04-25T12:37:28.705Z,99840.53
2023-04-25T12:39:57.149Z,99826.97
2023-04-25T12:42:25.767Z,99838.19
2023-04-25T12:47:42.423Z,99834.31
2023-04-25T12:50:12.316Z,99837.59
2023-04-25T12:52:44.665Z,99834.97
2023-04-25T12:55:17.459Z,99835.25
2023-04-25T13:00:31.389Z,99849.84
2023-04-25T13:02:59.830Z,99838.25
2023-04-25T13:05:28.892Z,99842.28
2023-04-25T13:08:06.718Z,99846.38
2023-04-25T13:13:20.253Z,99840.38
2023-04-25T13:16:23.626Z,99839.88
2023-04-25T13:21:59.928Z,99851.69
2023-04-25T13:24:38.319Z,99857.44
2023-04-25T13:35:27.413Z,99853.06
2023-04-25T13:40:38.897Z,99851.00
2023-04-25T13:43:16.058Z,99846.91
2023-04-25T13:51:39.186Z,99863.94
2023-04-25T13:54:17.490Z,99864.13
2023-04-25T13:56:49.209Z,99861.91
2023-04-25T13:59:22.602Z,99875.03
2023-04-25T14:01:56.027Z,99871.09
2023-04-25T14:04:44.370Z,99872.16
2023-04-25T14:10:11.416Z,99870.66
2023-04-25T14:13:05.745Z,99865.56
2023-04-25T14:15:53.932Z,99878.69
2023-04-25T14:24:24.671Z,99877.63
2023-04-25T14:30:19.155Z,99881.69
2023-04-25T14:42:29.959Z,99877.41
2023-04-25T14:45:03.152Z,99886.34
2023-04-25T14:47:37.047Z,99893.44
2023-04-25T14:50:07.702Z,99894.50
2023-04-25T14:52:37.549Z,99887.03
2023-04-25T14:55:08.933Z,99891.00
2023-04-25T14:57:45.608Z,99889.16
2023-04-25T15:00:28.392Z,99898.06
2023-04-25T15:06:02.578Z,99894.69
2023-04-25T15:08:34.428Z,99906.16
2023-04-25T15:14:19.348Z,99896.06
2023-04-25T15:16:48.235Z,99892.66
2023-04-25T15:19:16.540Z,99893.00
2023-04-25T15:21:45.394Z,99890.00
2023-04-25T15:30:47.244Z,99915.16
2023-04-25T15:50:37.660Z,99920.63
2023-04-25T15:53:16.889Z,99926.25
2023-04-25T15:58:45.700Z,99925.78
2023-04-25T16:07:01.194Z,99926.56
2023-04-25T16:09:33.564Z,99924.63
2023-04-25T16:12:02.787Z,99915.81
2023-04-25T16:14:31.714Z,99917.81
2023-04-25T16:17:01.932Z,99922.03
2023-04-25T16:22:36.169Z,99919.78
2023-04-25T16:25:08.333Z,99920.56
2023-04-25T16:30:19.307Z,99929.78
2023-04-25T16:32:50.424Z,99932.03
2023-04-25T16:36:01.813Z,99941.81
2023-04-25T16:38:40.645Z,99934.69
2023-04-25T16:47:59.868Z,99938.78
2023-04-25T16:50:28.461Z,99934.03
2023-04-25T16:52:56.992Z,99942.06
2023-04-25T16:55:26.661Z,99939.00
2023-04-25T16:57:55.171Z,99942.19
2023-04-25T17:00:23.811Z,99937.00
2023-04-25T17:02:52.667Z,99939.59
2023-04-25T17:05:20.909Z,99949.78
2023-04-25T17:07:49.270Z,99951.34
2023-04-25T17:10:18.148Z,99953.09
2023-04-25T17:12:48.519Z,99955.91
2023-04-25T17:15:17.119Z,99959.84
2023-04-25T17:17:45.632Z,99959.84
2023-04-25T17:20:18.270Z,99960.78
2023-04-25T17:22:46.540Z,99964.00
2023-04-25T17:25:21.428Z,99955.97
2023-04-25T17:27:52.199Z,99965.34
2023-04-25T17:30:22.254Z,99968.03
2023-04-25T17:32:51.872Z,99978.13
2023-04-25T17:35:20.680Z,99975.91
2023-04-25T17:37:51.644Z,99975.50
2023-04-25T17:40:21.395Z,99981.03
2023-04-25T17:42:51.800Z,99976.25
2023-04-25T17:45:20.078Z,99987.13
2023-04-25T17:47:48.668Z,99982.91
2023-04-25T17:50:20.993Z,99980.91
2023-04-25T17:52:54.875Z,99983.94
2023-04-25T17:55:24.571Z,99980.16
2023-04-25T17:57:57.622Z,99989.78
2023-04-25T18:00:26.947Z,99987.78
2023-04-25T18:02:56.360Z,99990.66
2023-04-25T18:05:25.313Z,99987.78
2023-04-25T18:07:54.155Z,99997.59
2023-04-25T18:10:23.017Z,100000.44
2023-04-25T18:12:51.965Z,100001.19
2023-04-25T18:15:23.520Z,100015.91
2023-04-25T18:17:54.703Z,100011.31
2023-04-25T18:20:23.652Z,100013.38
2023-04-25T18:22:52.479Z,100018.91
2023-04-25T18:25:20.660Z,100025.41
2023-04-25T18:27:50.802Z,100029.22
2023-04-25T18:30:19.357Z,100039.41
2023-04-25T18:32:48.920Z,100040.50
2023-04-25T18:35:17.223Z,100043.47
2023-04-25T18:37:45.917Z,100050.69
2023-04-25T18:40:16.698Z,100055.41
2023-04-25T18:42:44.938Z,100055.59
2023-04-25T18:45:14.460Z,100053.47
2023-04-25T18:47:43.056Z,100047.81
2023-04-25T18:50:13.353Z,100050.41
2023-04-25T18:52:42.374Z,100052.22
2023-04-25T18:55:12.242Z,100053.69
2023-04-25T18:57:41.250Z,100057.91
2023-04-25T19:00:11.281Z,100066.03
2023-04-25T19:02:40.163Z,100068.88
2023-04-25T19:05:10.451Z,100077.16
2023-04-25T19:07:40.702Z,100080.94
2023-04-25T19:10:09.690Z,100074.31
2023-04-25T19:12:40.931Z,100078.59
2023-04-25T19:15:11.398Z,100076.03
2023-04-25T19:17:39.639Z,100074.88
2023-04-25T19:20:08.823Z,100073.28
2023-04-25T19:22:37.490Z,100082.56
2023-04-25T19:25:10.964Z,100083.38
2023-04-25T19:27:39.819Z,100083.38
2023-04-25T19:30:11.825Z,100093.25
2023-04-25T19:32:40.640Z,100096.16
2023-04-25T19:35:11.339Z,100089.66
2023-04-25T19:37:46.869Z,100094.41
2023-04-25T19:40:23.081Z,100090.63
2023-04-25T19:42:52.099Z,100098.38
2023-04-25T19:45:20.602Z,100105.44
2023-04-25T19:47:49.477Z,100113.03
2023-04-25T19:50:18.206Z,100108.13
2023-04-25T19:52:46.809Z,100107.03
2023-04-25T19:55:15.817Z,100109.72
2023-04-25T19:57:46.232Z,100117.53
2023-04-25T20:00:20.377Z,100121.78
2023-04-25T20:02:50.036Z,100118.56
2023-04-25T20:05:19.918Z,100113.66
2023-04-25T20:07:49.278Z,100108.03
2023-04-25T20:10:18.654Z,100116.25
2023-04-25T20:12:49.118Z,100117.09
2023-04-25T20:15:20.309Z,100120.47
2023-04-25T20:17:49.547Z,100123.16
2023-04-25T20:20:19.369Z,100121.94
2023-04-25T20:22:47.871Z,100128.94
2023-04-25T20:25:19.498Z,100126.38
2023-04-25T20:27:49.420Z,100124.69
2023-04-25T20:30:18.726Z,100126.53
2023-04-25T20:32:47.002Z,100129.38
2023-04-25T20:35:15.803Z,100128.06
2023-04-25T20:37:44.262Z,100134.84
2023-04-25T20:40:13.006Z,100137.44
2023-04-25T20:42:41.549Z,100134.03
2023-04-25T20:45:13.877Z,100133.66
2023-04-25T20:47:42.929Z,100134.91
2023-04-25T20:50:12.925Z,100141.69
2023-04-25T20:52:43.642Z,100141.41
2023-04-25T20:55:12.742Z,100138.50
2023-04-25T20:57:41.559Z,100139.03
2023-04-25T21:00:16.910Z,100145.75
2023-04-25T21:02:47.655Z,100143.88
2023-04-25T21:05:17.175Z,100149.97
2023-04-25T21:07:45.798Z,100144.59
2023-04-25T21:10:16.321Z,100142.47
2023-04-25T21:12:48.271Z,100151.56
2023-04-25T21:15:18.552Z,100151.88
2023-04-25T21:17:49.037Z,100147.63
2023-04-25T21:20:18.460Z,100148.66
2023-04-25T21:22:50.957Z,100158.97
2023-04-25T21:25:24.434Z,100156.59
2023-04-25T21:27:53.212Z,100154.72
2023-04-25T21:30:23.662Z,100159.53
2023-04-25T21:32:53.913Z,100158.84
2023-04-25T21:35:23.411Z,100164.22
2023-04-25T21:37:52.293Z,100156.59
2023-04-25T21:40:20.219Z,100163.94
2023-04-25T21:42:51.652Z,100165.16
2023-04-25T21:45:20.761Z,100162.19
2023-04-25T21:47:49.119Z,100153.63
2023-04-25T21:50:19.082Z,100157.94
2023-04-25T21:52:47.283Z,100161.63
2023-04-25T21:55:15.543Z,100153.69
2023-04-25T21:57:43.784Z,100157.00
2023-04-25T22:00:21.971Z,100164.94
2023-04-25T22:02:50.366Z,100163.66
2023-04-25T22:05:22.796Z,100162.53
2023-04-25T22:07:51.186Z,100167.44
2023-04-25T22:10:19.823Z,100166.66
2023-04-25T22:12:51.158Z,100172.66
2023-04-25T22:15:21.562Z,100172.97
2023-04-25T22:17:52.149Z,100179.50
2023-04-25T22:20:25.387Z,100189.03
2023-04-25T22:22:53.617Z,100182.72
2023-04-25T22:25:22.672Z,100179.19
2023-04-25T22:27:55.548Z,100186.00
2023-04-25T22:30:24.216Z,100195.41
2023-04-25T22:32:52.481Z,100199.78
2023-04-25T22:35:22.255Z,100189.63
2023-04-25T22:37:50.368Z,100198.63
2023-04-25T22:40:18.410Z,100203.50
2023-04-25T22:42:46.453Z,100205.34
2023-04-25T22:45:14.941Z,100201.56
2023-04-25T22:47:43.189Z,100200.25
2023-04-25T22:50:14.832Z,100203.97
2023-04-25T22:52:44.172Z,100206.47
2023-04-25T22:55:13.397Z,100204.63
2023-04-25T22:57:41.631Z,100213.69
2023-04-25T23:00:16.019Z,100215.66
2023-04-25T23:02:45.583Z,100218.44
2023-04-25T23:05:15.706Z,100211.91
2023-04-25T23:07:46.337Z,100221.72
2023-04-25T23:10:15.783Z,100216.53
2023-04-25T23:12:44.058Z,100218.16
2023-04-25T23:15:14.085Z,100226.06
2023-04-25T23:17:42.584Z,100224.72
2023-04-25T23:20:12.302Z,100221.47
2023-04-25T23:22:40.801Z,100222.94
2023-04-25T23:25:12.206Z,100222.31
2023-04-25T23:27:42.291Z,100221.31
2023-04-25T23:30:11.564Z,100222.06
2023-04-25T23:32:40.824Z,100218.50
2023-04-25T23:35:10.240Z,100213.22
2023-04-25T23:37:40.482Z,100220.72
2023-04-25T23:40:10.159Z,100217.38
2023-04-25T23:42:41.171Z,100229.53
2023-04-25T23:45:10.012Z,100230.31
2023-04-25T23:47:39.256Z,100225.66
2023-04-25T23:50:08.226Z,100220.47
2023-04-25T23:52:38.253Z,100224.88
2023-04-25T23:55:07.079Z,100229.63
2023-04-25T23:57:35.502Z,100224.06
